createdAt,value
2023-01-17T00:01:46.071Z,3.8
2023-01-17T00:06:52.444Z,3.8
2023-01-17T00:11:48.825Z,3.8
2023-01-17T00:22:11.272Z,3.8
2023-01-17T00:27:22.246Z,3.7
2023-01-17T00:32:28.692Z,3.7
2023-01-17T00:37:35.037Z,3.7
2023-01-17T00:42:41.475Z,3.7
2023-01-17T00:47:47.832Z,3.7
2023-01-17T00:52:54.203Z,3.7
2023-01-17T00:58:02.197Z,3.7
2023-01-17T01:03:07.536Z,3.7
2023-01-17T01:08:14.914Z,3.7
2023-01-17T01:13:21.326Z,3.7
2023-01-17T01:18:29.259Z,3.7
2023-01-17T01:23:35.641Z,3.7
2023-01-17T01:28:43.608Z,3.6
2023-01-17T01:33:49.983Z,3.6
2023-01-17T01:38:56.349Z,3.6
2023-01-17T01:44:02.741Z,3.6
2023-01-17T01:49:10.661Z,3.6
2023-01-17T01:54:17.044Z,3.6
2023-01-17T01:59:49.102Z,3.6
2023-01-17T02:04:31.388Z,3.6
2023-01-17T02:09:37.823Z,3.6
2023-01-17T02:14:44.160Z,3.5
2023-01-17T02:19:54.141Z,3.5
2023-01-17T02:25:00.616Z,3.5
2023-01-17T02:29:57.098Z,3.5
2023-01-17T02:35:13.598Z,3.5
2023-01-17T02:40:19.954Z,3.4
2023-01-17T02:45:26.326Z,3.4
2023-01-17T02:50:34.313Z,3.4
2023-01-17T02:55:40.683Z,3.3
2023-01-17T03:00:48.788Z,3.3
2023-01-17T03:05:55.449Z,3.3
2023-01-17T03:11:27.401Z,3.2
2023-01-17T03:16:12.573Z,3.2
2023-01-17T03:21:16.527Z,3.2
2023-01-17T03:26:22.891Z,3.1
2023-01-17T03:31:32.862Z,3.1
2023-01-17T03:36:40.361Z,3.0
2023-01-17T03:41:46.748Z,2.9
2023-01-17T03:46:43.249Z,2.9
2023-01-17T03:51:58.684Z,2.8
2023-01-17T03:57:06.080Z,2.7
2023-01-17T04:02:12.718Z,2.7
2023-01-17T04:07:22.494Z,2.6
2023-01-17T04:12:28.879Z,2.5
2023-01-17T04:17:35.281Z,2.5
2023-01-17T04:22:41.796Z,2.4
2023-01-17T04:27:53.694Z,2.4
2023-01-17T04:32:55.076Z,2.4
2023-01-17T04:38:04.065Z,2.4
2023-01-17T04:43:10.421Z,2.3
2023-01-17T04:48:16.786Z,2.3
2023-01-17T04:53:23.184Z,2.3
2023-01-17T04:59:41.663Z,2.3
2023-01-17T05:03:25.896Z,2.2
2023-01-17T05:08:42.316Z,2.2
2023-01-17T05:13:47.809Z,2.2
2023-01-17T05:18:55.188Z,2.2
2023-01-17T05:24:01.592Z,2.1
2023-01-17T05:29:08.500Z,2.1
2023-01-17T05:34:05.439Z,2.1
2023-01-17T05:39:26.443Z,2.0
2023-01-17T05:44:32.786Z,2.0
2023-01-17T05:49:39.142Z,2.0
2023-01-17T05:54:45.655Z,2.0
2023-01-17T05:59:52.000Z,1.9
2023-01-17T06:04:48.374Z,1.9
2023-01-17T06:09:54.765Z,1.8
2023-01-17T06:15:11.138Z,1.8
2023-01-17T06:20:19.090Z,1.7
2023-01-17T06:25:29.492Z,1.7
2023-01-17T06:30:31.957Z,1.6
2023-01-17T06:35:42.360Z,1.6
2023-01-17T06:40:44.744Z,1.6
2023-01-17T06:45:51.440Z,1.6
2023-01-17T06:50:57.507Z,1.5
2023-01-17T06:56:03.891Z,1.5
2023-01-17T07:01:00.338Z,1.4
2023-01-17T07:06:06.591Z,1.4
2023-01-17T07:11:23.057Z,1.3
2023-01-17T07:16:19.445Z,1.3
2023-01-17T07:21:25.756Z,1.2
2023-01-17T07:26:42.235Z,1.2
2023-01-17T07:31:48.574Z,1.1
2023-01-17T07:36:55.057Z,1.1
2023-01-17T07:41:51.574Z,1.0
2023-01-17T07:47:08.029Z,1.0
2023-01-17T07:52:16.301Z,1.0
2023-01-17T07:57:44.824Z,1.0
2023-01-17T08:02:27.173Z,1.0
2023-01-17T08:07:32.517Z,0.9
2023-01-17T08:12:39.890Z,0.9
2023-01-17T08:17:46.311Z,0.9
2023-01-17T08:22:52.638Z,0.9
2023-01-17T08:27:59.129Z,1.0
2023-01-17T08:33:05.627Z,1.0
2023-01-17T08:38:12.099Z,1.0
2023-01-17T08:43:08.503Z,1.0
2023-01-17T08:48:24.976Z,1.0
2023-01-17T08:53:45.332Z,1.0
2023-01-17T08:58:37.687Z,1.0
2023-01-17T09:03:34.196Z,1.1
2023-01-17T09:08:52.061Z,1.1
2023-01-17T09:13:58.448Z,1.2
2023-01-17T09:19:06.434Z,1.2
2023-01-17T09:24:12.755Z,1.3
2023-01-17T09:29:19.140Z,1.4
2023-01-17T09:34:25.660Z,1.4
2023-01-17T09:39:31.998Z,1.4
2023-01-17T09:44:38.488Z,1.5
2023-01-17T09:49:46.481Z,1.5
2023-01-17T09:54:52.879Z,1.5
2023-01-17T10:01:13.197Z,1.6
2023-01-17T10:05:07.266Z,1.7
2023-01-17T10:10:13.570Z,1.7
2023-01-17T10:15:09.974Z,1.8
2023-01-17T10:20:27.975Z,1.9
2023-01-17T10:25:34.331Z,2.0
2023-01-17T10:30:40.775Z,2.1
2023-01-17T10:35:47.283Z,2.2
2023-01-17T10:40:55.207Z,2.3
2023-01-17T10:46:01.652Z,2.4
2023-01-17T10:51:07.996Z,2.5
2023-01-17T10:56:14.328Z,2.5
2023-01-17T11:01:20.984Z,2.6
2023-01-17T11:06:31.155Z,2.7
2023-01-17T11:11:33.459Z,2.7
2023-01-17T11:16:39.832Z,2.8
2023-01-17T11:21:46.347Z,2.8
2023-01-17T11:26:52.624Z,2.9
2023-01-17T11:31:59.014Z,2.9
2023-01-17T11:42:14.415Z,3.0
2023-01-17T11:47:21.869Z,3.1
2023-01-17T11:52:28.235Z,3.1
2023-01-17T11:57:36.298Z,3.2
2023-01-17T12:02:42.646Z,3.3
2023-01-17T12:07:49.063Z,3.4
2023-01-17T12:12:55.458Z,3.5
2023-01-17T12:18:35.891Z,3.7
2023-01-17T12:28:49.926Z,3.9
2023-01-17T12:33:56.245Z,4.0
2023-01-17T12:39:02.621Z,4.1
2023-01-17T12:44:09.065Z,4.2
2023-01-17T12:49:40.018Z,4.3
2023-01-17T12:54:22.342Z,4.4
2023-01-17T12:59:18.718Z,4.6
2023-01-17T13:04:25.186Z,4.9
2023-01-17T13:09:41.600Z,5.2
2023-01-17T13:14:47.996Z,5.5
2023-01-17T13:19:54.353Z,5.8
2023-01-17T13:25:00.737Z,5.8
2023-01-17T13:40:19.850Z,6.2
2023-01-17T13:45:26.571Z,6.3
2023-01-17T13:50:32.987Z,6.4
2023-01-17T13:55:39.467Z,6.4
2023-01-17T14:00:45.909Z,6.5
2023-01-17T14:05:52.342Z,6.6
2023-01-17T14:10:48.849Z,6.7
2023-01-17T14:16:05.352Z,6.8
2023-01-17T14:21:01.617Z,6.9
2023-01-17T14:26:18.008Z,6.9
2023-01-17T14:31:58.518Z,7.1
2023-01-17T14:37:06.241Z,7.1
2023-01-17T14:42:12.615Z,7.2
2023-01-17T14:47:09.019Z,7.2
2023-01-17T14:52:15.362Z,7.3
2023-01-17T14:57:30.819Z,7.3
2023-01-17T15:02:28.523Z,7.3
2023-01-17T15:07:44.793Z,7.3
2023-01-17T15:12:41.226Z,7.3
2023-01-17T15:17:57.679Z,7.2
2023-01-17T15:23:24.065Z,7.1
2023-01-17T15:28:14.169Z,7.0
2023-01-17T15:33:20.569Z,6.7
2023-01-17T15:38:26.926Z,6.5
2023-01-17T15:43:47.329Z,6.3
2023-01-17T15:49:02.843Z,6.0
2023-01-17T15:53:45.147Z,5.8
2023-01-17T15:58:52.561Z,5.5
2023-01-17T16:03:58.113Z,5.3
2023-01-17T16:09:05.516Z,5.0
2023-01-17T16:19:45.346Z,4.5
2023-01-17T16:24:27.708Z,4.3
2023-01-17T16:29:58.093Z,4.0
2023-01-17T16:34:40.426Z,3.8
2023-01-17T16:39:46.865Z,3.6
2023-01-17T16:44:43.258Z,3.4
2023-01-17T16:50:19.763Z,3.2
2023-01-17T16:55:06.070Z,3.1
2023-01-17T17:00:46.631Z,2.7
2023-01-17T17:05:53.956Z,2.7
2023-01-17T17:11:24.432Z,2.5
2023-01-17T17:16:06.408Z,2.4
2023-01-17T17:21:13.668Z,2.2
2023-01-17T17:26:20.047Z,2.1
2023-01-17T17:31:26.543Z,1.9
2023-01-17T17:36:32.868Z,1.8
2023-01-17T17:41:39.264Z,1.6
2023-01-17T17:46:45.692Z,1.5
2023-01-17T17:52:12.135Z,1.3
2023-01-17T17:56:58.545Z,1.2
2023-01-17T18:02:04.997Z,1.1
2023-01-17T18:07:01.229Z,0.9
2023-01-17T18:12:17.750Z,0.8
2023-01-17T18:17:27.419Z,0.7
2023-01-17T18:28:40.949Z,0.5
2023-01-17T18:32:47.203Z,0.4
2023-01-17T18:37:53.978Z,0.3
2023-01-17T18:42:59.945Z,0.2
2023-01-17T18:48:10.017Z,0.1
2023-01-17T18:53:16.497Z,0.0
2023-01-17T18:58:22.836Z,-0.1
2023-01-17T19:03:29.254Z,-0.2
2023-01-17T19:08:39.201Z,-0.3
2023-01-17T19:13:45.628Z,-0.4
2023-01-17T19:19:16.235Z,-0.5
2023-01-17T19:25:10.891Z,-0.5
2023-01-17T19:31:25.626Z,-0.6
2023-01-17T19:34:11.609Z,-0.7
2023-01-17T19:39:42.165Z,-0.8
2023-01-17T19:44:24.531Z,-0.8
2023-01-17T19:49:34.521Z,-0.9
2023-01-17T19:55:41.115Z,-1.0
2023-01-17T19:59:47.253Z,-1.1
2023-01-17T20:04:53.658Z,-1.1
2023-01-17T20:10:34.121Z,-1.2
2023-01-17T20:15:41.503Z,-1.2
2023-01-17T20:20:56.934Z,-1.3
2023-01-17T20:25:54.437Z,-1.3
2023-01-17T20:31:00.834Z,-1.4
2023-01-17T20:41:13.565Z,-1.5
2023-01-17T20:51:50.384Z,-1.6
2023-01-17T20:56:32.789Z,-1.6
2023-01-17T21:01:39.417Z,-1.7
2023-01-17T21:06:45.550Z,-1.7
2023-01-17T21:11:51.968Z,-1.8
2023-01-17T21:16:58.346Z,-1.8
2023-01-17T21:22:23.706Z,-1.9
2023-01-17T21:27:11.056Z,-1.9
2023-01-17T21:32:17.576Z,-2.0
2023-01-17T21:37:48.079Z,-2.0
2023-01-17T21:42:30.564Z,-2.1
2023-01-17T21:47:36.932Z,-2.1
2023-01-17T21:52:44.362Z,-2.2
2023-01-17T21:57:49.791Z,-2.2
2023-01-17T22:02:58.772Z,-2.2
2023-01-17T22:08:02.552Z,-2.3
2023-01-17T22:13:09.049Z,-2.3
2023-01-17T22:18:35.596Z,-2.4
2023-01-17T22:23:21.913Z,-2.4
2023-01-17T22:28:28.416Z,-2.5
2023-01-17T22:33:34.791Z,-2.5
2023-01-17T22:38:41.205Z,-2.5
2023-01-17T22:43:47.561Z,-2.6
2023-01-17T22:48:53.991Z,-2.6
2023-01-17T22:54:00.419Z,-2.7
2023-01-17T22:59:26.817Z,-2.7
2023-01-17T23:04:13.149Z,-2.7
2023-01-17T23:09:19.665Z,-2.8
2023-01-17T23:14:26.073Z,-2.8
2023-01-17T23:19:36.075Z,-2.8
2023-01-17T23:24:42.568Z,-2.9
2023-01-17T23:29:49.025Z,-2.9
2023-01-17T23:35:19.466Z,-3.0
2023-01-17T23:40:25.856Z,-3.0
2023-01-17T23:45:08.199Z,-3.0
2023-01-17T23:50:34.639Z,-3.1
2023-01-17T23:55:21.015Z,-3.1
